Thunder radar more information blitzortung!


Radar de pluja more information rain snow radar


Visita la nostra xarxa de llocs de meteo:

Template documentation
and downloads

And another site



No particular awareness of the weather is required.    There are no Weather-warnings

Pagina Historial Weather Underground text

Diari Resum May 13, 2017 Unitats:  Tant    Imperial   Mètric
« Previous Dia
SegĂźent Dia »
Diari Setmana Mensual Anual Personalitzada
  Maxima: Minima: Media:
Temperatura: 80.1 °F /  26.7 °C 55.9 °F /  13.3 °C 71.1 °F /  21.7 °C
Punt de rosada: 53.4 °F /  11.9 °C 42.4 °F /  5.8 °C 46.8 °F /  8.2 °C
Humitat: 72 % 28 % 44 %
Wind Speed: 15 mph /  24.1 km/h - 6 mph /  9.6 km/h
RĂ fegues de vent: 15 mph /  24.1 km/h - -
Vent:- - WSW
Pression baro: 30.1 in /  1018.8 hPa 29.8 in /  1010.7 hPa -
Precipitacions: 0 in /  0.0 mm    
Historical Graphs
 
 
Dades de taula per May 13, 2017
Temps Temperatura Punt de rosada Pression baro Vent Wind Speed RĂ fegues de vent Humitat Rainfall Rate (Hourly)
00:04 60.8 °F /  16.0 °C 49.8 °F /  9.9 °C 29.8 in /  1010.7 hPa WSW 6.9 mph /  11.1 km/h 6.9 mph /  11.1 km/h 67 % 0 in /  0.0 mm
00:05 58.3 °F /  14.6 °C 48.2 °F /  9.0 °C 29.8 in /  1010.7 hPa Calm   1 mph /  1.6 km/h 69 % 0 in /  0.0 mm
00:09 60.8 °F /  16.0 °C 50.2 °F /  10.1 °C 29.8 in /  1010.7 hPa SW 3.5 mph /  5.6 km/h 3.5 mph /  5.6 km/h 68 % 0 in /  0.0 mm
00:14 60.4 °F /  15.8 °C 49.8 °F /  9.9 °C 29.8 in /  1010.7 hPa SSW 5.8 mph /  9.3 km/h 5.8 mph /  9.3 km/h 68 % 0 in /  0.0 mm
00:15 58.3 °F /  14.6 °C 47.8 °F /  8.8 °C 29.8 in /  1010.7 hPa West 1 mph /  1.6 km/h 2 mph /  3.2 km/h 68 % 0 in /  0.0 mm
00:25 58.3 °F /  14.6 °C 47.8 °F /  8.8 °C 29.9 in /  1011.7 hPa West 1 mph /  1.6 km/h 2 mph /  3.2 km/h 68 % 0 in /  0.0 mm
00:35 58.3 °F /  14.6 °C 47.8 °F /  8.8 °C 29.9 in /  1011.7 hPa WNW 1 mph /  1.6 km/h 1 mph /  1.6 km/h 68 % 0 in /  0.0 mm
00:45 58.5 °F /  14.7 °C 47.8 °F /  8.8 °C 29.9 in /  1011.7 hPa Calm   2 mph /  3.2 km/h 68 % 0 in /  0.0 mm
00:55 58.1 °F /  14.5 °C 47.7 °F /  8.7 °C 29.9 in /  1011.7 hPa SW 1 mph /  1.6 km/h 2 mph /  3.2 km/h 68 % 0 in /  0.0 mm
01:05 57.6 °F /  14.2 °C 47.5 °F /  8.6 °C 29.9 in /  1011.7 hPa Calm   2 mph /  3.2 km/h 69 % 0 in /  0.0 mm
01:15 56.5 °F /  13.6 °C 46.4 °F /  8.0 °C 29.9 in /  1011.7 hPa SW 1 mph /  1.6 km/h 3 mph /  4.8 km/h 69 % 0 in /  0.0 mm
01:25 56.5 °F /  13.6 °C 46.8 °F /  8.2 °C 29.9 in /  1011.7 hPa Calm     70 % 0 in /  0.0 mm
01:35 56.3 °F /  13.5 °C 46.2 °F /  7.9 °C 29.9 in /  1011.7 hPa SW 3 mph /  4.8 km/h 3 mph /  4.8 km/h 69 % 0 in /  0.0 mm
01:45 55.9 °F /  13.3 °C 46.8 °F /  8.2 °C 29.9 in /  1011.7 hPa SW 2 mph /  3.2 km/h 3 mph /  4.8 km/h 71 % 0 in /  0.0 mm
01:55 56.3 °F /  13.5 °C 46.9 °F /  8.3 °C 29.9 in /  1011.7 hPa SW 2 mph /  3.2 km/h 3 mph /  4.8 km/h 71 % 0 in /  0.0 mm
02:05 57.7 °F /  14.3 °C 48.7 °F /  9.3 °C 29.9 in /  1011.7 hPa WSW 2 mph /  3.2 km/h 3 mph /  4.8 km/h 72 % 0 in /  0.0 mm
02:15 57.9 °F /  14.4 °C 48.9 °F /  9.4 °C 29.9 in /  1011.7 hPa WSW 2 mph /  3.2 km/h 2 mph /  3.2 km/h 72 % 0 in /  0.0 mm
02:25 58.5 °F /  14.7 °C 49.1 °F /  9.5 °C 29.9 in /  1011.7 hPa SW 1 mph /  1.6 km/h 3 mph /  4.8 km/h 71 % 0 in /  0.0 mm
02:35 59.2 °F /  15.1 °C 49.8 °F /  9.9 °C 29.9 in /  1012.8 hPa Calm   1 mph /  1.6 km/h 71 % 0 in /  0.0 mm
02:45 60.1 °F /  15.6 °C 50.5 °F /  10.3 °C 29.9 in /  1012.8 hPa SW 1 mph /  1.6 km/h 3 mph /  4.8 km/h 71 % 0 in /  0.0 mm
02:55 61 °F /  16.1 °C 51.1 °F /  10.6 °C 29.9 in /  1012.8 hPa South 1 mph /  1.6 km/h 2 mph /  3.2 km/h 70 % 0 in /  0.0 mm
03:05 60.8 °F /  16.0 °C 50.5 °F /  10.3 °C 29.9 in /  1012.8 hPa ESE 3 mph /  4.8 km/h 4 mph /  6.4 km/h 69 % 0 in /  0.0 mm
03:25 63.3 °F /  17.4 °C 52.2 °F /  11.2 °C 29.9 in /  1012.8 hPa SE 1 mph /  1.6 km/h 3 mph /  4.8 km/h 67 % 0 in /  0.0 mm
03:35 64.2 °F /  17.9 °C 52.5 °F /  11.4 °C 29.9 in /  1012.8 hPa SSE 1 mph /  1.6 km/h 2 mph /  3.2 km/h 66 % 0 in /  0.0 mm
03:45 64.8 °F /  18.2 °C 52.7 °F /  11.5 °C 29.9 in /  1012.8 hPa SW 1 mph /  1.6 km/h 2 mph /  3.2 km/h 65 % 0 in /  0.0 mm
03:55 65.1 °F /  18.4 °C 52.5 °F /  11.4 °C 29.9 in /  1013.8 hPa WSW 2 mph /  3.2 km/h 3 mph /  4.8 km/h 64 % 0 in /  0.0 mm
04:05 64.9 °F /  18.3 °C 52 °F /  11.1 °C 29.9 in /  1013.8 hPa WSW 2 mph /  3.2 km/h 5 mph /  8.0 km/h 63 % 0 in /  0.0 mm
04:15 64.9 °F /  18.3 °C 51.6 °F /  10.9 °C 29.9 in /  1013.8 hPa WSW 3 mph /  4.8 km/h 4 mph /  6.4 km/h 62 % 0 in /  0.0 mm
04:25 65.8 °F /  18.8 °C 52.5 °F /  11.4 °C 29.9 in /  1013.8 hPa WSW 2 mph /  3.2 km/h 3 mph /  4.8 km/h 62 % 0 in /  0.0 mm
04:35 66.2 °F /  19.0 °C 52 °F /  11.1 °C 29.9 in /  1013.8 hPa WSW 3 mph /  4.8 km/h 6 mph /  9.7 km/h 60 % 0 in /  0.0 mm
04:45 66.6 °F /  19.2 °C 51.8 °F /  11.0 °C 29.9 in /  1013.8 hPa WSW 5 mph /  8.0 km/h 6 mph /  9.7 km/h 59 % 0 in /  0.0 mm
04:55 67.6 °F /  19.8 °C 52.3 °F /  11.3 °C 29.9 in /  1013.8 hPa West 3 mph /  4.8 km/h 3 mph /  4.8 km/h 58 % 0 in /  0.0 mm
05:05 67.6 °F /  19.8 °C 52.3 °F /  11.3 °C 29.9 in /  1013.8 hPa West 5 mph /  8.0 km/h 6 mph /  9.7 km/h 58 % 0 in /  0.0 mm
05:15 68.2 °F /  20.1 °C 52 °F /  11.1 °C 29.9 in /  1013.8 hPa West 2 mph /  3.2 km/h 4 mph /  6.4 km/h 56 % 0 in /  0.0 mm
10:21 68.7 °F /  20.4 °C 52 °F /  11.1 °C 30 in /  1014.8 hPa West 5.4 mph /  8.7 km/h 5.4 mph /  8.7 km/h 55 % 0 in /  0.0 mm
10:26 69.1 °F /  20.6 °C 52.2 °F /  11.2 °C 29.9 in /  1013.8 hPa WSW 4.6 mph /  7.4 km/h 4.6 mph /  7.4 km/h 55 % 0 in /  0.0 mm
10:31 69.4 °F /  20.8 °C 52.2 °F /  11.2 °C 29.9 in /  1013.8 hPa SW 3.5 mph /  5.6 km/h 3.5 mph /  5.6 km/h 54 % 0 in /  0.0 mm
10:36 70.3 °F /  21.3 °C 52.3 °F /  11.3 °C 29.9 in /  1013.8 hPa WSW 5.8 mph /  9.3 km/h 5.8 mph /  9.3 km/h 53 % 0 in /  0.0 mm
10:41 70.5 °F /  21.4 °C 52.5 °F /  11.4 °C 30 in /  1014.8 hPa WSW 5.8 mph /  9.3 km/h 5.8 mph /  9.3 km/h 53 % 0 in /  0.0 mm
10:46 70.9 °F /  21.6 °C 52.9 °F /  11.6 °C 30 in /  1014.8 hPa WSW 9.2 mph /  14.8 km/h 9.2 mph /  14.8 km/h 53 % 0 in /  0.0 mm
10:51 71.2 °F /  21.8 °C 52.7 °F /  11.5 °C 30 in /  1014.8 hPa North 9.2 mph /  14.8 km/h 9.2 mph /  14.8 km/h 52 % 0 in /  0.0 mm
10:56 72.1 °F /  22.3 °C 53.4 °F /  11.9 °C 30 in /  1014.8 hPa WSW 4.6 mph /  7.4 km/h 4.6 mph /  7.4 km/h 52 % 0 in /  0.0 mm
11:01 71.6 °F /  22.0 °C 52.5 °F /  11.4 °C 30 in /  1014.8 hPa WSW 5.8 mph /  9.3 km/h 5.8 mph /  9.3 km/h 51 % 0 in /  0.0 mm
11:02 71.8 °F /  22.1 °C 52.7 °F /  11.5 °C 30 in /  1014.8 hPa WSW 4.6 mph /  7.4 km/h 4.6 mph /  7.4 km/h 51 % 0 in /  0.0 mm
11:07 72 °F /  22.2 °C 52.9 °F /  11.6 °C 30 in /  1014.8 hPa SW 4.6 mph /  7.4 km/h 4.6 mph /  7.4 km/h 51 % 0 in /  0.0 mm
11:12 72.5 °F /  22.5 °C 52.9 °F /  11.6 °C 30 in /  1014.8 hPa WSW 8.5 mph /  13.7 km/h 8.5 mph /  13.7 km/h 50 % 0 in /  0.0 mm
11:17 72.1 °F /  22.3 °C 52 °F /  11.1 °C 30 in /  1014.8 hPa SW 4 mph /  6.4 km/h 4 mph /  6.4 km/h 49 % 0 in /  0.0 mm
11:22 72.3 °F /  22.4 °C 52.2 °F /  11.2 °C 30 in /  1014.8 hPa West 5.8 mph /  9.3 km/h 5.8 mph /  9.3 km/h 49 % 0 in /  0.0 mm
11:27 72.5 °F /  22.5 °C 52.2 °F /  11.2 °C 30 in /  1014.8 hPa West 5.8 mph /  9.3 km/h 5.8 mph /  9.3 km/h 49 % 0 in /  0.0 mm
11:32 73.2 °F /  22.9 °C 52.9 °F /  11.6 °C 30 in /  1014.8 hPa West 5.8 mph /  9.3 km/h 5.8 mph /  9.3 km/h 49 % 0 in /  0.0 mm
11:37 73 °F /  22.8 °C 52.2 °F /  11.2 °C 30 in /  1014.8 hPa WNW 9.2 mph /  14.8 km/h 9.2 mph /  14.8 km/h 48 % 0 in /  0.0 mm
11:42 73.2 °F /  22.9 °C 52.3 °F /  11.3 °C 30 in /  1014.8 hPa WSW 8.1 mph /  13.0 km/h 8.1 mph /  13.0 km/h 48 % 0 in /  0.0 mm
11:47 73.8 °F /  23.2 °C 52.3 °F /  11.3 °C 30 in /  1014.8 hPa West 5.8 mph /  9.3 km/h 5.8 mph /  9.3 km/h 47 % 0 in /  0.0 mm
11:52 74.3 °F /  23.5 °C 52.9 °F /  11.6 °C 30 in /  1014.8 hPa SSW 8.1 mph /  13.0 km/h 8.1 mph /  13.0 km/h 47 % 0 in /  0.0 mm
11:57 74.3 °F /  23.5 °C 52.2 °F /  11.2 °C 30 in /  1014.8 hPa WSW 6.9 mph /  11.1 km/h 6.9 mph /  11.1 km/h 46 % 0 in /  0.0 mm
12:02 74.8 °F /  23.8 °C 52.7 °F /  11.5 °C 30 in /  1014.8 hPa WSW 3.5 mph /  5.6 km/h 3.5 mph /  5.6 km/h 46 % 0 in /  0.0 mm
12:07 75.2 °F /  24.0 °C 52.3 °F /  11.3 °C 30 in /  1014.8 hPa SW 9.2 mph /  14.8 km/h 9.2 mph /  14.8 km/h 45 % 0 in /  0.0 mm
12:12 74.7 °F /  23.7 °C 52 °F /  11.1 °C 30 in /  1014.8 hPa SW 6.9 mph /  11.1 km/h 6.9 mph /  11.1 km/h 45 % 0 in /  0.0 mm
12:17 74.1 °F /  23.4 °C 50.2 °F /  10.1 °C 30 in /  1014.8 hPa North 5.8 mph /  9.3 km/h 5.8 mph /  9.3 km/h 43 % 0 in /  0.0 mm
12:22 74.3 °F /  23.5 °C 50.4 °F /  10.2 °C 30 in /  1014.8 hPa West 5.8 mph /  9.3 km/h 5.8 mph /  9.3 km/h 43 % 0 in /  0.0 mm
12:27 75.6 °F /  24.2 °C 51.4 °F /  10.8 °C 30 in /  1014.8 hPa West 3.5 mph /  5.6 km/h 3.5 mph /  5.6 km/h 43 % 0 in /  0.0 mm
12:32 75.6 °F /  24.2 °C 51.4 °F /  10.8 °C 30 in /  1014.8 hPa SW 5.8 mph /  9.3 km/h 5.8 mph /  9.3 km/h 43 % 0 in /  0.0 mm
12:37 76.5 °F /  24.7 °C 51.6 °F /  10.9 °C 30 in /  1014.8 hPa North 11.5 mph /  18.5 km/h 11.5 mph /  18.5 km/h 42 % 0 in /  0.0 mm
12:42 76.1 °F /  24.5 °C 51.3 °F /  10.7 °C 30 in /  1014.8 hPa West 8.1 mph /  13.0 km/h 8.1 mph /  13.0 km/h 42 % 0 in /  0.0 mm
12:47 76.3 °F /  24.6 °C 50.7 °F /  10.4 °C 30 in /  1014.8 hPa SW 6.9 mph /  11.1 km/h 6.9 mph /  11.1 km/h 41 % 0 in /  0.0 mm
12:52 77 °F /  25.0 °C 50.2 °F /  10.1 °C 30 in /  1014.8 hPa SW 4.6 mph /  7.4 km/h 4.6 mph /  7.4 km/h 39 % 0 in /  0.0 mm
12:57 76.8 °F /  24.9 °C 50 °F /  10.0 °C 30 in /  1014.8 hPa SW 4.6 mph /  7.4 km/h 4.6 mph /  7.4 km/h 39 % 0 in /  0.0 mm
13:02 77.4 °F /  25.2 °C 49.8 °F /  9.9 °C 30 in /  1014.8 hPa WNW 6 mph /  9.7 km/h 6 mph /  9.7 km/h 38 % 0 in /  0.0 mm
13:07 76.8 °F /  24.9 °C 49.3 °F /  9.6 °C 30 in /  1014.8 hPa SW 5.8 mph /  9.3 km/h 5.8 mph /  9.3 km/h 38 % 0 in /  0.0 mm
13:12 77.4 °F /  25.2 °C 48.9 °F /  9.4 °C 30 in /  1014.8 hPa WSW 9.7 mph /  15.6 km/h 9.7 mph /  15.6 km/h 37 % 0 in /  0.0 mm
13:17 77 °F /  25.0 °C 47.1 °F /  8.4 °C 30 in /  1014.8 hPa West 8.1 mph /  13.0 km/h 8.1 mph /  13.0 km/h 35 % 0 in /  0.0 mm
13:22 76.3 °F /  24.6 °C 46.6 °F /  8.1 °C 30 in /  1014.8 hPa SSW 5.8 mph /  9.3 km/h 5.8 mph /  9.3 km/h 35 % 0 in /  0.0 mm
13:27 76.8 °F /  24.9 °C 46.2 °F /  7.9 °C 30 in /  1015.8 hPa WNW 6.9 mph /  11.1 km/h 7.8 mph /  12.6 km/h 34 % 0 in /  0.0 mm
13:32 77.2 °F /  25.1 °C 45.9 °F /  7.7 °C 30 in /  1015.8 hPa WSW 10.9 mph /  17.5 km/h 10.9 mph /  17.5 km/h 33 % 0 in /  0.0 mm
13:37 77.2 °F /  25.1 °C 44.2 °F /  6.8 °C 30 in /  1015.8 hPa NNW 10.4 mph /  16.7 km/h 10.4 mph /  16.7 km/h 31 % 0 in /  0.0 mm
13:42 77 °F /  25.0 °C 44.1 °F /  6.7 °C 30 in /  1014.8 hPa WNW 5.8 mph /  9.3 km/h 5.8 mph /  9.3 km/h 31 % 0 in /  0.0 mm
13:47 77.2 °F /  25.1 °C 44.2 °F /  6.8 °C 30 in /  1014.8 hPa WNW 4.6 mph /  7.4 km/h 4.6 mph /  7.4 km/h 31 % 0 in /  0.0 mm
13:52 77.9 °F /  25.5 °C 44.8 °F /  7.1 °C 30 in /  1014.8 hPa WSW 6.9 mph /  11.1 km/h 6.9 mph /  11.1 km/h 31 % 0 in /  0.0 mm
13:57 77.4 °F /  25.2 °C 43.5 °F /  6.4 °C 30 in /  1014.8 hPa West 10.4 mph /  16.7 km/h 10.4 mph /  16.7 km/h 30 % 0 in /  0.0 mm
14:02 77.4 °F /  25.2 °C 43.5 °F /  6.4 °C 30 in /  1014.8 hPa NNW 6.9 mph /  11.1 km/h 6.9 mph /  11.1 km/h 30 % 0 in /  0.0 mm
14:07 77.7 °F /  25.4 °C 43.9 °F /  6.6 °C 30 in /  1014.8 hPa NW 6.7 mph /  10.8 km/h 6.7 mph /  10.8 km/h 30 % 0 in /  0.0 mm
14:12 78.4 °F /  25.8 °C 45.3 °F /  7.4 °C 30 in /  1015.8 hPa WNW 6.9 mph /  11.1 km/h 6.9 mph /  11.1 km/h 31 % 0 in /  0.0 mm
14:17 77.9 °F /  25.5 °C 44.1 °F /  6.7 °C 30 in /  1015.8 hPa West 9.2 mph /  14.8 km/h 9.2 mph /  14.8 km/h 30 % 0 in /  0.0 mm
14:22 77.9 °F /  25.5 °C 44.1 °F /  6.7 °C 30 in /  1015.8 hPa SW 8.1 mph /  13.0 km/h 8.1 mph /  13.0 km/h 30 % 0 in /  0.0 mm
14:27 78.3 °F /  25.7 °C 44.2 °F /  6.8 °C 30 in /  1014.8 hPa NW 8.1 mph /  13.0 km/h 8.1 mph /  13.0 km/h 30 % 0 in /  0.0 mm
14:32 78.3 °F /  25.7 °C 44.2 °F /  6.8 °C 30 in /  1014.8 hPa WSW 8.1 mph /  13.0 km/h 8.1 mph /  13.0 km/h 30 % 0 in /  0.0 mm
14:37 77.7 °F /  25.4 °C 43.9 °F /  6.6 °C 30 in /  1014.8 hPa WSW 8.1 mph /  13.0 km/h 8.1 mph /  13.0 km/h 30 % 0 in /  0.0 mm
14:42 77.4 °F /  25.2 °C 43.5 °F /  6.4 °C 30 in /  1015.8 hPa SW 6.9 mph /  11.1 km/h 6.9 mph /  11.1 km/h 30 % 0 in /  0.0 mm
14:47 77 °F /  25.0 °C 43.2 °F /  6.2 °C 30 in /  1015.8 hPa West 4.9 mph /  7.9 km/h 4.9 mph /  7.9 km/h 30 % 0 in /  0.0 mm
14:52 76.5 °F /  24.7 °C 42.6 °F /  5.9 °C 30 in /  1015.8 hPa WSW 5.8 mph /  9.3 km/h 5.8 mph /  9.3 km/h 30 % 0 in /  0.0 mm
14:57 77.2 °F /  25.1 °C 42.4 °F /  5.8 °C 30 in /  1015.8 hPa NW 10.4 mph /  16.7 km/h 10.4 mph /  16.7 km/h 29 % 0 in /  0.0 mm
14:58 77.2 °F /  25.1 °C 42.4 °F /  5.8 °C 30 in /  1015.8 hPa WSW 10.4 mph /  16.7 km/h 10.4 mph /  16.7 km/h 29 % 0 in /  0.0 mm
15:03 77.5 °F /  25.3 °C 42.8 °F /  6.0 °C 30 in /  1015.8 hPa WSW 3.6 mph /  5.8 km/h 4.5 mph /  7.2 km/h 29 % 0 in /  0.0 mm
15:08 78.4 °F /  25.8 °C 44.4 °F /  6.9 °C 30 in /  1015.8 hPa SSE 3.6 mph /  5.8 km/h 3.6 mph /  5.8 km/h 30 % 0 in /  0.0 mm
15:09 78.8 °F /  26.0 °C 44.8 °F /  7.1 °C 30 in /  1015.8 hPa West 7.4 mph /  11.9 km/h 7.4 mph /  11.9 km/h 30 % 0 in /  0.0 mm
15:14 79 °F /  26.1 °C 45 °F /  7.2 °C 30 in /  1014.8 hPa WNW 8.1 mph /  13.0 km/h 8.1 mph /  13.0 km/h 30 % 0 in /  0.0 mm
15:19 78.8 °F /  26.0 °C 44.8 °F /  7.1 °C 30 in /  1014.8 hPa West 5.8 mph /  9.3 km/h 5.8 mph /  9.3 km/h 30 % 0 in /  0.0 mm
15:24 79 °F /  26.1 °C 45 °F /  7.2 °C 30 in /  1014.8 hPa SW 5.8 mph /  9.3 km/h 5.8 mph /  9.3 km/h 30 % 0 in /  0.0 mm
15:29 78.6 °F /  25.9 °C 44.6 °F /  7.0 °C 30 in /  1015.8 hPa WNW 6.9 mph /  11.1 km/h 6.9 mph /  11.1 km/h 30 % 0 in /  0.0 mm
15:34 79.5 °F /  26.4 °C 44.4 °F /  6.9 °C 30 in /  1015.8 hPa WNW 4.6 mph /  7.4 km/h 4.6 mph /  7.4 km/h 29 % 0 in /  0.0 mm
15:39 79.5 °F /  26.4 °C 44.4 °F /  6.9 °C 30 in /  1015.8 hPa West 8.1 mph /  13.0 km/h 8.1 mph /  13.0 km/h 29 % 0 in /  0.0 mm
15:44 78.8 °F /  26.0 °C 43 °F /  6.1 °C 30 in /  1015.8 hPa West 9.7 mph /  15.6 km/h 9.7 mph /  15.6 km/h 28 % 0 in /  0.0 mm
15:49 79.2 °F /  26.2 °C 44.2 °F /  6.8 °C 30 in /  1015.8 hPa SW 6 mph /  9.7 km/h 6 mph /  9.7 km/h 29 % 0 in /  0.0 mm
15:54 79.7 °F /  26.5 °C 44.6 °F /  7.0 °C 30 in /  1015.8 hPa WSW 6.4 mph /  10.3 km/h 6.4 mph /  10.3 km/h 29 % 0 in /  0.0 mm
15:59 79.3 °F /  26.3 °C 44.2 °F /  6.8 °C 30 in /  1015.8 hPa WSW 9.2 mph /  14.8 km/h 9.2 mph /  14.8 km/h 29 % 0 in /  0.0 mm
16:04 79.5 °F /  26.4 °C 44.4 °F /  6.9 °C 30 in /  1015.8 hPa WSW 4.6 mph /  7.4 km/h 4.6 mph /  7.4 km/h 29 % 0 in /  0.0 mm
16:09 79.7 °F /  26.5 °C 44.6 °F /  7.0 °C 30 in /  1015.8 hPa WSW 8.1 mph /  13.0 km/h 8.1 mph /  13.0 km/h 29 % 0 in /  0.0 mm
16:14 79.2 °F /  26.2 °C 43.2 °F /  6.2 °C 30 in /  1014.8 hPa WNW 7.8 mph /  12.6 km/h 7.8 mph /  12.6 km/h 28 % 0 in /  0.0 mm
16:19 78.8 °F /  26.0 °C 43 °F /  6.1 °C 30 in /  1014.8 hPa West 4.6 mph /  7.4 km/h 4.6 mph /  7.4 km/h 28 % 0 in /  0.0 mm
16:24 79.2 °F /  26.2 °C 43.2 °F /  6.2 °C 30 in /  1014.8 hPa WNW 9.4 mph /  15.1 km/h 9.4 mph /  15.1 km/h 28 % 0 in /  0.0 mm
16:29 79 °F /  26.1 °C 43.2 °F /  6.2 °C 30 in /  1014.8 hPa SW 4.6 mph /  7.4 km/h 4.6 mph /  7.4 km/h 28 % 0 in /  0.0 mm
16:34 79 °F /  26.1 °C 43.2 °F /  6.2 °C 30 in /  1014.8 hPa SW 5.8 mph /  9.3 km/h 5.8 mph /  9.3 km/h 28 % 0 in /  0.0 mm
16:39 79.3 °F /  26.3 °C 43.3 °F /  6.3 °C 30 in /  1014.8 hPa West 5.8 mph /  9.3 km/h 5.8 mph /  9.3 km/h 28 % 0 in /  0.0 mm
16:44 79.5 °F /  26.4 °C 44.4 °F /  6.9 °C 30 in /  1014.8 hPa SW 5.8 mph /  9.3 km/h 5.8 mph /  9.3 km/h 29 % 0 in /  0.0 mm
16:49 79.5 °F /  26.4 °C 44.4 °F /  6.9 °C 30 in /  1014.8 hPa NW 5.8 mph /  9.3 km/h 5.8 mph /  9.3 km/h 29 % 0 in /  0.0 mm
16:54 79 °F /  26.1 °C 43.2 °F /  6.2 °C 30 in /  1014.8 hPa WSW 8.1 mph /  13.0 km/h 8.1 mph /  13.0 km/h 28 % 0 in /  0.0 mm
16:59 79.5 °F /  26.4 °C 44.4 °F /  6.9 °C 30 in /  1014.8 hPa West 5.8 mph /  9.3 km/h 5.8 mph /  9.3 km/h 29 % 0 in /  0.0 mm
17:04 80.1 °F /  26.7 °C 45 °F /  7.2 °C 30 in /  1014.8 hPa WSW 4.6 mph /  7.4 km/h 4.6 mph /  7.4 km/h 29 % 0 in /  0.0 mm
17:09 79.9 °F /  26.6 °C 43.9 °F /  6.6 °C 30 in /  1014.8 hPa WNW 11.5 mph /  18.5 km/h 11.5 mph /  18.5 km/h 28 % 0 in /  0.0 mm
17:14 79.7 °F /  26.5 °C 43.7 °F /  6.5 °C 30 in /  1014.8 hPa WSW 4.3 mph /  6.9 km/h 4.3 mph /  6.9 km/h 28 % 0 in /  0.0 mm
17:19 79.7 °F /  26.5 °C 43.7 °F /  6.5 °C 30 in /  1014.8 hPa West 9.2 mph /  14.8 km/h 9.2 mph /  14.8 km/h 28 % 0 in /  0.0 mm
17:24 79.7 °F /  26.5 °C 44.6 °F /  7.0 °C 30 in /  1014.8 hPa West 6.9 mph /  11.1 km/h 6.9 mph /  11.1 km/h 29 % 0 in /  0.0 mm
17:29 79.3 °F /  26.3 °C 43.3 °F /  6.3 °C 30 in /  1014.8 hPa South 8.1 mph /  13.0 km/h 8.1 mph /  13.0 km/h 28 % 0 in /  0.0 mm
17:34 79.5 °F /  26.4 °C 44.4 °F /  6.9 °C 30 in /  1014.8 hPa WNW 5.8 mph /  9.3 km/h 5.8 mph /  9.3 km/h 29 % 0 in /  0.0 mm
17:39 78.8 °F /  26.0 °C 43.9 °F /  6.6 °C 30 in /  1014.8 hPa West 5.8 mph /  9.3 km/h 5.8 mph /  9.3 km/h 29 % 0 in /  0.0 mm
17:40 78.8 °F /  26.0 °C 43.9 °F /  6.6 °C 30 in /  1014.8 hPa SW 7.4 mph /  11.9 km/h 7.4 mph /  11.9 km/h 29 % 0 in /  0.0 mm
17:45 78.4 °F /  25.8 °C 43.5 °F /  6.4 °C 30 in /  1014.8 hPa WSW 8.5 mph /  13.7 km/h 8.5 mph /  13.7 km/h 29 % 0 in /  0.0 mm
17:50 77.5 °F /  25.3 °C 43.5 °F /  6.4 °C 30 in /  1014.8 hPa SW 5.9 mph /  9.5 km/h 5.9 mph /  9.5 km/h 30 % 0 in /  0.0 mm
17:55 77 °F /  25.0 °C 43.2 °F /  6.2 °C 30 in /  1014.8 hPa SW 5.8 mph /  9.3 km/h 5.8 mph /  9.3 km/h 30 % 0 in /  0.0 mm
18:00 76.3 °F /  24.6 °C 43.3 °F /  6.3 °C 30 in /  1014.8 hPa SSW 5.8 mph /  9.3 km/h 5.8 mph /  9.3 km/h 31 % 0 in /  0.0 mm
18:05 75.7 °F /  24.3 °C 43.9 °F /  6.6 °C 30 in /  1014.8 hPa WSW 6.9 mph /  11.1 km/h 6.9 mph /  11.1 km/h 32 % 0 in /  0.0 mm
18:10 76.5 °F /  24.7 °C 44.4 °F /  6.9 °C 30 in /  1014.8 hPa SW 6.9 mph /  11.1 km/h 6.9 mph /  11.1 km/h 32 % 0 in /  0.0 mm
18:15 75.7 °F /  24.3 °C 44.6 °F /  7.0 °C 30 in /  1014.8 hPa SSW 11.5 mph /  18.5 km/h 11.5 mph /  18.5 km/h 33 % 0 in /  0.0 mm
18:20 75 °F /  23.9 °C 44.1 °F /  6.7 °C 30 in /  1014.8 hPa SW 5.8 mph /  9.3 km/h 5.8 mph /  9.3 km/h 33 % 0 in /  0.0 mm
18:25 74.8 °F /  23.8 °C 44.6 °F /  7.0 °C 30 in /  1015.8 hPa SSW 6.4 mph /  10.3 km/h 6.4 mph /  10.3 km/h 34 % 0 in /  0.0 mm
18:30 74.8 °F /  23.8 °C 44.6 °F /  7.0 °C 30 in /  1015.8 hPa South 6.9 mph /  11.1 km/h 6.9 mph /  11.1 km/h 34 % 0 in /  0.0 mm
18:35 74.8 °F /  23.8 °C 44.6 °F /  7.0 °C 30 in /  1015.8 hPa West 8.5 mph /  13.7 km/h 8.5 mph /  13.7 km/h 34 % 0 in /  0.0 mm
18:40 74.8 °F /  23.8 °C 45.3 °F /  7.4 °C 30 in /  1014.8 hPa SW 10.4 mph /  16.7 km/h 10.4 mph /  16.7 km/h 35 % 0 in /  0.0 mm
18:45 75.2 °F /  24.0 °C 46.4 °F /  8.0 °C 30 in /  1014.8 hPa SSW 4.9 mph /  7.9 km/h 4.9 mph /  7.9 km/h 36 % 0 in /  0.0 mm
18:50 75 °F /  23.9 °C 46.2 °F /  7.9 °C 30 in /  1014.8 hPa SW 9.2 mph /  14.8 km/h 9.2 mph /  14.8 km/h 36 % 0 in /  0.0 mm
18:55 74.7 °F /  23.7 °C 45.9 °F /  7.7 °C 30 in /  1015.8 hPa SW 11.5 mph /  18.5 km/h 11.5 mph /  18.5 km/h 36 % 0 in /  0.0 mm
19:00 74.3 °F /  23.5 °C 45.7 °F /  7.6 °C 30 in /  1015.8 hPa SSW 12.7 mph /  20.4 km/h 12.7 mph /  20.4 km/h 36 % 0 in /  0.0 mm
19:05 74.1 °F /  23.4 °C 45.5 °F /  7.5 °C 30 in /  1015.8 hPa SW 6.9 mph /  11.1 km/h 6.9 mph /  11.1 km/h 36 % 0 in /  0.0 mm
19:10 74.1 °F /  23.4 °C 45.5 °F /  7.5 °C 30 in /  1015.8 hPa SW 8.1 mph /  13.0 km/h 8.1 mph /  13.0 km/h 36 % 0 in /  0.0 mm
19:12 74.1 °F /  23.4 °C 45.5 °F /  7.5 °C 30 in /  1015.8 hPa SSW 10.4 mph /  16.7 km/h 10.4 mph /  16.7 km/h 36 % 0 in /  0.0 mm
19:17 73.9 °F /  23.3 °C 45.3 °F /  7.4 °C 30 in /  1015.8 hPa SW 12.7 mph /  20.4 km/h 12.7 mph /  20.4 km/h 36 % 0 in /  0.0 mm
19:22 73.6 °F /  23.1 °C 45 °F /  7.2 °C 30 in /  1015.8 hPa SW 15 mph /  24.1 km/h 15 mph /  24.1 km/h 36 % 0 in /  0.0 mm
19:27 73.6 °F /  23.1 °C 45 °F /  7.2 °C 30 in /  1015.8 hPa SSW 8.1 mph /  13.0 km/h 8.1 mph /  13.0 km/h 36 % 0 in /  0.0 mm
19:32 73 °F /  22.8 °C 45.1 °F /  7.3 °C 30 in /  1015.8 hPa SSW 13.8 mph /  22.2 km/h 13.8 mph /  22.2 km/h 37 % 0 in /  0.0 mm
19:37 72.9 °F /  22.7 °C 45.1 °F /  7.3 °C 30 in /  1015.8 hPa SW 9.2 mph /  14.8 km/h 9.2 mph /  14.8 km/h 37 % 0 in /  0.0 mm
19:42 72.5 °F /  22.5 °C 44.8 °F /  7.1 °C 30 in /  1015.8 hPa SW 10.4 mph /  16.7 km/h 10.4 mph /  16.7 km/h 37 % 0 in /  0.0 mm
19:47 72.1 °F /  22.3 °C 45.1 °F /  7.3 °C 30 in /  1015.8 hPa SSW 6.9 mph /  11.1 km/h 6.9 mph /  11.1 km/h 38 % 0 in /  0.0 mm
19:52 71.8 °F /  22.1 °C 44.8 °F /  7.1 °C 30 in /  1015.8 hPa SW 15 mph /  24.1 km/h 15 mph /  24.1 km/h 38 % 0 in /  0.0 mm
19:57 71.6 °F /  22.0 °C 45.3 °F /  7.4 °C 30 in /  1015.8 hPa SW 9.2 mph /  14.8 km/h 9.2 mph /  14.8 km/h 39 % 0 in /  0.0 mm
20:02 71.2 °F /  21.8 °C 45 °F /  7.2 °C 30 in /  1015.8 hPa SSW 12.8 mph /  20.6 km/h 12.8 mph /  20.6 km/h 39 % 0 in /  0.0 mm
20:07 70.7 °F /  21.5 °C 45.1 °F /  7.3 °C 30 in /  1015.8 hPa South 10.4 mph /  16.7 km/h 10.4 mph /  16.7 km/h 40 % 0 in /  0.0 mm
20:12 70.3 °F /  21.3 °C 45 °F /  7.2 °C 30 in /  1015.8 hPa South 12.7 mph /  20.4 km/h 12.7 mph /  20.4 km/h 40 % 0 in /  0.0 mm
20:17 70 °F /  21.1 °C 45.1 °F /  7.3 °C 30 in /  1015.8 hPa SW 11.5 mph /  18.5 km/h 11.5 mph /  18.5 km/h 41 % 0 in /  0.0 mm
20:22 69.6 °F /  20.9 °C 45 °F /  7.2 °C 30 in /  1015.8 hPa SW 9.2 mph /  14.8 km/h 9.2 mph /  14.8 km/h 41 % 0 in /  0.0 mm
20:27 69.4 °F /  20.8 °C 45.3 °F /  7.4 °C 30 in /  1015.8 hPa SW 5.8 mph /  9.3 km/h 5.8 mph /  9.3 km/h 42 % 0 in /  0.0 mm
20:32 68.9 °F /  20.5 °C 45 °F /  7.2 °C 30 in /  1015.8 hPa SW 8.1 mph /  13.0 km/h 8.1 mph /  13.0 km/h 42 % 0 in /  0.0 mm
20:37 68.7 °F /  20.4 °C 45.3 °F /  7.4 °C 30 in /  1015.8 hPa South 10.4 mph /  16.7 km/h 10.4 mph /  16.7 km/h 43 % 0 in /  0.0 mm
20:42 68.4 °F /  20.2 °C 45 °F /  7.2 °C 30 in /  1016.8 hPa SW 7.4 mph /  11.9 km/h 7.4 mph /  11.9 km/h 43 % 0 in /  0.0 mm
20:47 68.2 °F /  20.1 °C 45.3 °F /  7.4 °C 30 in /  1016.8 hPa WSW 8.5 mph /  13.7 km/h 8.5 mph /  13.7 km/h 44 % 0 in /  0.0 mm
20:52 67.8 °F /  19.9 °C 45.1 °F /  7.3 °C 30 in /  1016.8 hPa SW 6.9 mph /  11.1 km/h 6.9 mph /  11.1 km/h 44 % 0 in /  0.0 mm
20:57 67.6 °F /  19.8 °C 45 °F /  7.2 °C 30.1 in /  1017.8 hPa SW 9.2 mph /  14.8 km/h 9.2 mph /  14.8 km/h 44 % 0 in /  0.0 mm
21:02 67.5 °F /  19.7 °C 45.3 °F /  7.4 °C 30.1 in /  1017.8 hPa SW 6.2 mph /  10.0 km/h 6.2 mph /  10.0 km/h 45 % 0 in /  0.0 mm
21:07 67.1 °F /  19.5 °C 45 °F /  7.2 °C 30.1 in /  1017.8 hPa SW 9.2 mph /  14.8 km/h 9.2 mph /  14.8 km/h 45 % 0 in /  0.0 mm
21:12 66.9 °F /  19.4 °C 45.5 °F /  7.5 °C 30.1 in /  1017.8 hPa SW 5.8 mph /  9.3 km/h 5.8 mph /  9.3 km/h 46 % 0 in /  0.0 mm
21:17 66.6 °F /  19.2 °C 45.1 °F /  7.3 °C 30.1 in /  1017.8 hPa SSW 7.4 mph /  11.9 km/h 7.4 mph /  11.9 km/h 46 % 0 in /  0.0 mm
21:22 66.4 °F /  19.1 °C 45.5 °F /  7.5 °C 30.1 in /  1017.8 hPa SW 6.9 mph /  11.1 km/h 6.9 mph /  11.1 km/h 47 % 0 in /  0.0 mm
21:27 66.2 °F /  19.0 °C 45.3 °F /  7.4 °C 30.1 in /  1017.8 hPa SW 4.6 mph /  7.4 km/h 4.6 mph /  7.4 km/h 47 % 0 in /  0.0 mm
21:32 66.2 °F /  19.0 °C 45.3 °F /  7.4 °C 30.1 in /  1017.8 hPa WSW 5.8 mph /  9.3 km/h 5.8 mph /  9.3 km/h 47 % 0 in /  0.0 mm
21:37 65.8 °F /  18.8 °C 46 °F /  7.8 °C 30.1 in /  1017.8 hPa SW 4.6 mph /  7.4 km/h 4.6 mph /  7.4 km/h 49 % 0 in /  0.0 mm
21:42 65.7 °F /  18.7 °C 46 °F /  7.8 °C 30.1 in /  1017.8 hPa SW 5.6 mph /  9.0 km/h 5.6 mph /  9.0 km/h 49 % 0 in /  0.0 mm
21:47 65.5 °F /  18.6 °C 45.9 °F /  7.7 °C 30.1 in /  1017.8 hPa SW 5.8 mph /  9.3 km/h 5.8 mph /  9.3 km/h 49 % 0 in /  0.0 mm
21:52 65.3 °F /  18.5 °C 45.7 °F /  7.6 °C 30.1 in /  1017.8 hPa SSW 4.6 mph /  7.4 km/h 4.6 mph /  7.4 km/h 49 % 0 in /  0.0 mm
21:57 65.1 °F /  18.4 °C 45.5 °F /  7.5 °C 30.1 in /  1017.8 hPa SW 4.6 mph /  7.4 km/h 4.6 mph /  7.4 km/h 49 % 0 in /  0.0 mm
22:02 65.1 °F /  18.4 °C 45.5 °F /  7.5 °C 30.1 in /  1017.8 hPa SW 4.6 mph /  7.4 km/h 4.6 mph /  7.4 km/h 49 % 0 in /  0.0 mm
22:07 64.9 °F /  18.3 °C 45.9 °F /  7.7 °C 30.1 in /  1017.8 hPa SW 2.4 mph /  3.9 km/h 2.4 mph /  3.9 km/h 50 % 0 in /  0.0 mm
22:12 64.8 °F /  18.2 °C 45.7 °F /  7.6 °C 30.1 in /  1017.8 hPa SW 2.6 mph /  4.2 km/h 2.6 mph /  4.2 km/h 50 % 0 in /  0.0 mm
22:17 64.4 °F /  18.0 °C 45.3 °F /  7.4 °C 30.1 in /  1017.8 hPa SW 3.5 mph /  5.6 km/h 3.5 mph /  5.6 km/h 50 % 0 in /  0.0 mm
22:22 64.4 °F /  18.0 °C 45.3 °F /  7.4 °C 30.1 in /  1017.8 hPa WSW 2.4 mph /  3.9 km/h 2.4 mph /  3.9 km/h 50 % 0 in /  0.0 mm
22:27 64.2 °F /  17.9 °C 45.1 °F /  7.3 °C 30.1 in /  1017.8 hPa SW 3.5 mph /  5.6 km/h 3.5 mph /  5.6 km/h 50 % 0 in /  0.0 mm
22:32 64 °F /  17.8 °C 45 °F /  7.2 °C 30.1 in /  1017.8 hPa WSW 3.6 mph /  5.8 km/h 3.6 mph /  5.8 km/h 50 % 0 in /  0.0 mm
22:37 64 °F /  17.8 °C 45 °F /  7.2 °C 30.1 in /  1017.8 hPa WSW 3.5 mph /  5.6 km/h 3.5 mph /  5.6 km/h 50 % 0 in /  0.0 mm
22:42 63.7 °F /  17.6 °C 45.1 °F /  7.3 °C 30.1 in /  1017.8 hPa WSW 4 mph /  6.4 km/h 4 mph /  6.4 km/h 51 % 0 in /  0.0 mm
22:47 63.5 °F /  17.5 °C 45 °F /  7.2 °C 30.1 in /  1017.8 hPa SSW 3.5 mph /  5.6 km/h 3.5 mph /  5.6 km/h 51 % 0 in /  0.0 mm
22:52 63.5 °F /  17.5 °C 45 °F /  7.2 °C 30.1 in /  1017.8 hPa South 3.5 mph /  5.6 km/h 3.5 mph /  5.6 km/h 51 % 0 in /  0.0 mm
22:57 63.1 °F /  17.3 °C 44.8 °F /  7.1 °C 30.1 in /  1018.8 hPa SW 4 mph /  6.4 km/h 4 mph /  6.4 km/h 51 % 0 in /  0.0 mm
23:02 63.1 °F /  17.3 °C 45.1 °F /  7.3 °C 30.1 in /  1018.8 hPa SW 3.5 mph /  5.6 km/h 3.5 mph /  5.6 km/h 52 % 0 in /  0.0 mm
23:07 63.3 °F /  17.4 °C 45.3 °F /  7.4 °C 30.1 in /  1018.8 hPa SW 3.3 mph /  5.3 km/h 3.3 mph /  5.3 km/h 52 % 0 in /  0.0 mm
23:12 63.3 °F /  17.4 °C 45.3 °F /  7.4 °C 30.1 in /  1018.8 hPa SSW 3.5 mph /  5.6 km/h 3.5 mph /  5.6 km/h 52 % 0 in /  0.0 mm
23:17 63.1 °F /  17.3 °C 45.1 °F /  7.3 °C 30.1 in /  1018.8 hPa SW 3.5 mph /  5.6 km/h 3.5 mph /  5.6 km/h 52 % 0 in /  0.0 mm
23:22 63.1 °F /  17.3 °C 45.1 °F /  7.3 °C 30.1 in /  1018.8 hPa SW 4 mph /  6.4 km/h 4 mph /  6.4 km/h 52 % 0 in /  0.0 mm
23:27 63.1 °F /  17.3 °C 45.7 °F /  7.6 °C 30.1 in /  1018.8 hPa SW 3.5 mph /  5.6 km/h 3.5 mph /  5.6 km/h 53 % 0 in /  0.0 mm
23:32 62.8 °F /  17.1 °C 45.3 °F /  7.4 °C 30.1 in /  1018.8 hPa WSW 3.5 mph /  5.6 km/h 3.5 mph /  5.6 km/h 53 % 0 in /  0.0 mm
23:37 63 °F /  17.2 °C 45.7 °F /  7.6 °C 30.1 in /  1018.8 hPa SW 4.6 mph /  7.4 km/h 4.6 mph /  7.4 km/h 53 % 0 in /  0.0 mm
23:42 63 °F /  17.2 °C 45.7 °F /  7.6 °C 30.1 in /  1018.8 hPa WSW 3.5 mph /  5.6 km/h 3.5 mph /  5.6 km/h 53 % 0 in /  0.0 mm
23:47 63 °F /  17.2 °C 45.7 °F /  7.6 °C 30.1 in /  1018.8 hPa WSW 2.9 mph /  4.7 km/h 2.9 mph /  4.7 km/h 53 % 0 in /  0.0 mm
23:52 63 °F /  17.2 °C 45.7 °F /  7.6 °C 30.1 in /  1018.8 hPa West 2.3 mph /  3.7 km/h 2.3 mph /  3.7 km/h 53 % 0 in /  0.0 mm
23:57 63 °F /  17.2 °C 45.7 °F /  7.6 °C 30.1 in /  1018.8 hPa WSW 2.6 mph /  4.2 km/h 2.6 mph /  4.2 km/h 53 % 0 in /  0.0 mm
Meteo Sesrovires
Elogis d' Weather Underground - 3.5 mb

Guio original per  Jim McMurry - jmcmurry@mwt.net Adaptat per a la plantilla per  Wim van der Kuil - Leuven-Template.eu

Trobareu la nostra informacio del temps tambe a:

Weather Underground

AWEKAS